createdAt,value
2023-03-01T00:01:55.802Z,47.55
2023-03-01T00:04:23.911Z,47.28
2023-03-01T00:06:52.312Z,47.58
2023-03-01T00:09:20.390Z,46.33
2023-03-01T00:11:48.548Z,45.67
2023-03-01T00:14:17.403Z,45.03
2023-03-01T00:16:45.893Z,44.13
2023-03-01T00:19:16.433Z,44.22
2023-03-01T00:21:44.633Z,42.95
2023-03-01T00:24:12.838Z,43.70
2023-03-01T00:26:40.957Z,43.13
2023-03-01T00:29:09.056Z,42.25
2023-03-01T00:31:37.212Z,41.72
2023-03-01T00:34:07.127Z,40.72
2023-03-01T00:36:37.811Z,40.58
2023-03-01T00:39:06.900Z,41.35
2023-03-01T00:41:35.801Z,39.25
2023-03-01T00:44:04.212Z,39.47
2023-03-01T00:46:32.819Z,39.63
2023-03-01T00:49:03.156Z,38.88
2023-03-01T00:51:31.400Z,38.75
2023-03-01T00:54:01.657Z,38.38
2023-03-01T00:56:30.904Z,37.53
2023-03-01T00:58:59.446Z,37.17
2023-03-01T01:01:31.655Z,36.72
2023-03-01T01:04:00.875Z,36.08
2023-03-01T01:06:30.176Z,35.85
2023-03-01T01:08:58.449Z,36.17
2023-03-01T01:11:29.702Z,35.58
2023-03-01T01:13:58.035Z,35.20
2023-03-01T01:16:27.437Z,34.38
2023-03-01T01:18:55.712Z,34.30
2023-03-01T01:21:24.619Z,34.13
2023-03-01T01:23:53.090Z,33.13
2023-03-01T01:26:22.140Z,32.80
2023-03-01T01:28:52.956Z,34.30
2023-03-01T01:31:21.193Z,32.33
2023-03-01T01:33:49.360Z,31.48
2023-03-01T01:36:17.480Z,32.15
2023-03-01T01:38:45.722Z,31.77
2023-03-01T01:41:14.102Z,31.70
2023-03-01T01:43:43.381Z,31.95
2023-03-01T01:46:18.402Z,31.60
2023-03-01T01:48:50.413Z,30.70
2023-03-01T01:51:20.828Z,30.23
2023-03-01T01:53:50.612Z,30.38
2023-03-01T01:56:18.735Z,29.27
2023-03-01T01:58:48.558Z,29.30
2023-03-01T02:01:18.183Z,30.08
2023-03-01T02:03:46.976Z,28.60
2023-03-01T02:06:17.892Z,28.67
2023-03-01T02:08:46.031Z,28.38
2023-03-01T02:11:15.558Z,27.58
2023-03-01T02:13:43.684Z,27.52
2023-03-01T02:16:12.398Z,26.52
2023-03-01T02:18:42.017Z,27.95
2023-03-01T02:21:19.887Z,27.05
2023-03-01T02:23:48.148Z,26.88
2023-03-01T02:26:20.993Z,27.02
2023-03-01T02:28:50.581Z,25.67
2023-03-01T02:31:37.579Z,26.42
2023-03-01T02:34:06.720Z,25.85
2023-03-01T02:36:37.987Z,25.08
2023-03-01T02:39:08.070Z,25.52
2023-03-01T02:41:37.620Z,25.15
2023-03-01T02:44:07.332Z,24.83
2023-03-01T02:46:43.601Z,24.42
2023-03-01T02:49:26.716Z,25.20
2023-03-01T02:52:07.240Z,23.77
2023-03-01T02:54:38.591Z,24.75
2023-03-01T02:57:06.877Z,23.25
2023-03-01T02:59:40.458Z,24.33
2023-03-01T03:02:10.048Z,24.17
2023-03-01T03:04:38.201Z,23.08
2023-03-01T03:07:06.513Z,24.42
2023-03-01T03:09:34.570Z,23.75
2023-03-01T03:12:02.879Z,22.75
2023-03-01T03:14:36.012Z,22.60
2023-03-01T03:17:07.744Z,22.73
2023-03-01T03:19:36.170Z,23.02
2023-03-01T03:22:04.512Z,22.38
2023-03-01T03:24:39.068Z,22.85
2023-03-01T03:27:07.460Z,22.05
2023-03-01T03:29:35.614Z,21.92
2023-03-01T03:32:05.406Z,21.27
2023-03-01T03:34:33.737Z,21.23
2023-03-01T03:37:01.959Z,21.73
2023-03-01T03:39:35.898Z,21.58
2023-03-01T03:42:04.085Z,21.35
2023-03-01T03:44:32.189Z,21.35
2023-03-01T03:47:00.519Z,20.67
2023-03-01T03:49:30.037Z,20.20
2023-03-01T03:51:58.357Z,20.73
2023-03-01T03:54:26.532Z,19.42
2023-03-01T03:56:54.774Z,20.98
2023-03-01T03:59:22.832Z,19.98
2023-03-01T04:01:51.030Z,20.80
2023-03-01T04:04:19.999Z,20.13
2023-03-01T04:06:49.999Z,18.85
2023-03-01T04:09:18.079Z,19.23
2023-03-01T04:11:46.188Z,18.73
2023-03-01T04:14:14.416Z,19.05
2023-03-01T04:16:42.674Z,18.88
2023-03-01T04:19:10.853Z,19.35
2023-03-01T04:21:38.985Z,18.95
2023-03-01T04:24:10.751Z,18.88
2023-03-01T04:26:39.017Z,17.83
2023-03-01T04:29:07.112Z,17.58
2023-03-01T04:31:35.281Z,18.30
2023-03-01T04:34:03.692Z,17.90
2023-03-01T04:36:32.305Z,17.58
2023-03-01T04:39:00.651Z,18.20
2023-03-01T04:41:32.391Z,17.85
2023-03-01T04:44:01.188Z,17.83
2023-03-01T04:46:29.829Z,17.08
2023-03-01T04:48:58.297Z,17.60
2023-03-01T04:51:26.332Z,16.88
2023-03-01T04:53:54.480Z,16.95
2023-03-01T04:56:23.992Z,17.38
2023-03-01T04:58:55.457Z,16.58
2023-03-01T05:01:23.642Z,16.40
2023-03-01T05:03:52.624Z,16.88
2023-03-01T05:06:21.824Z,17.38
2023-03-01T05:08:49.876Z,16.08
2023-03-01T05:11:18.058Z,16.63
2023-03-01T05:13:46.160Z,16.33
2023-03-01T05:16:15.808Z,15.95
2023-03-01T05:18:44.444Z,16.52
2023-03-01T05:21:13.703Z,16.15
2023-03-01T05:23:41.828Z,16.17
2023-03-01T05:26:22.423Z,15.77
2023-03-01T05:29:00.284Z,15.13
2023-03-01T05:31:31.768Z,15.27
2023-03-01T05:34:00.153Z,15.70
2023-03-01T05:36:28.391Z,15.25
2023-03-01T05:38:56.932Z,16.10
2023-03-01T05:41:25.075Z,15.32
2023-03-01T05:43:53.312Z,14.75
2023-03-01T05:46:21.580Z,15.02
2023-03-01T05:48:51.220Z,14.88
2023-03-01T05:51:19.784Z,14.90
2023-03-01T05:53:47.890Z,15.38
2023-03-01T05:56:16.042Z,14.73
2023-03-01T05:58:44.304Z,14.30
2023-03-01T06:01:14.420Z,13.73
2023-03-01T06:03:42.662Z,13.80
2023-03-01T06:06:12.216Z,13.43
2023-03-01T06:08:40.493Z,14.30
2023-03-01T06:11:11.742Z,13.75
2023-03-01T06:13:39.984Z,13.85
2023-03-01T06:16:09.085Z,13.50
2023-03-01T06:18:37.210Z,14.07
2023-03-01T06:21:05.820Z,14.02
2023-03-01T06:23:35.400Z,14.05
2023-03-01T06:26:06.916Z,15.50
2023-03-01T06:28:35.164Z,21.88
2023-03-01T06:31:03.358Z,23.35
2023-03-01T06:33:31.493Z,34.50
2023-03-01T06:35:59.656Z,28.83
2023-03-01T06:38:27.780Z,29.63
2023-03-01T06:40:57.662Z,37.88
2023-03-01T06:43:25.789Z,34.28
2023-03-01T06:45:53.883Z,42.28
2023-03-01T06:48:22.011Z,52.55
2023-03-01T06:50:50.323Z,44.47
2023-03-01T06:53:18.443Z,45.58
2023-03-01T06:55:46.500Z,52.63
2023-03-01T06:58:16.210Z,41.75
2023-03-01T07:00:45.359Z,47.00
2023-03-01T07:03:13.688Z,54.92
2023-03-01T07:05:41.824Z,69.88
2023-03-01T07:08:10.004Z,57.30
2023-03-01T07:10:38.459Z,57.15
2023-03-01T07:13:07.856Z,60.72
2023-03-01T07:15:37.500Z,68.60
2023-03-01T07:18:05.620Z,62.78
2023-03-01T07:20:33.807Z,62.25
2023-03-01T07:23:02.085Z,71.78
2023-03-01T07:25:30.325Z,66.85
2023-03-01T07:27:58.554Z,67.45
2023-03-01T07:30:29.338Z,72.70
2023-03-01T07:32:59.147Z,77.65
2023-03-01T07:35:27.890Z,77.55
2023-03-01T07:37:56.041Z,74.18
2023-03-01T07:40:24.181Z,73.63
2023-03-01T07:42:56.986Z,82.50
2023-03-01T07:45:26.123Z,91.90
2023-03-01T07:47:54.364Z,94.97
2023-03-01T07:50:24.092Z,91.85
2023-03-01T07:52:52.264Z,83.45
2023-03-01T07:55:21.144Z,94.63
2023-03-01T07:57:49.366Z,87.60
2023-03-01T08:00:18.041Z,87.30
2023-03-01T08:02:46.515Z,86.63
2023-03-01T08:05:14.763Z,92.90
2023-03-01T08:07:44.296Z,95.35
2023-03-01T08:10:13.417Z,95.22
2023-03-01T08:12:41.548Z,98.05
2023-03-01T08:15:10.920Z,97.55
2023-03-01T08:17:39.013Z,102.97
2023-03-01T08:20:08.579Z,89.80
2023-03-01T08:22:36.776Z,79.38
2023-03-01T08:25:07.195Z,85.78
2023-03-01T08:27:35.607Z,88.63
2023-03-01T08:30:03.714Z,93.53
2023-03-01T08:32:32.055Z,92.63
2023-03-01T08:35:00.110Z,90.38
2023-03-01T08:37:28.902Z,88.38
2023-03-01T08:39:57.163Z,85.20
2023-03-01T08:42:26.860Z,86.65
2023-03-01T08:44:54.981Z,88.88
2023-03-01T08:47:23.181Z,85.20
2023-03-01T08:49:52.049Z,79.95
2023-03-01T08:52:20.101Z,77.28
2023-03-01T08:54:49.777Z,74.88
2023-03-01T08:57:17.982Z,74.13
2023-03-01T08:59:47.913Z,74.18
2023-03-01T09:02:16.998Z,73.00
2023-03-01T09:04:45.391Z,72.07
2023-03-01T09:07:13.534Z,72.60
2023-03-01T09:09:41.685Z,70.60
2023-03-01T09:12:22.049Z,71.00
2023-03-01T09:14:51.568Z,70.45
2023-03-01T09:17:22.677Z,68.85
2023-03-01T09:19:50.928Z,70.05
2023-03-01T09:22:19.038Z,68.72
2023-03-01T09:24:47.339Z,67.55
2023-03-01T09:27:15.711Z,67.70
2023-03-01T09:29:43.957Z,67.57
2023-03-01T09:32:13.545Z,66.47
2023-03-01T09:34:55.645Z,66.15
2023-03-01T09:37:23.855Z,64.47
2023-03-01T09:39:53.204Z,64.18
2023-03-01T09:42:21.672Z,63.42
2023-03-01T09:44:51.067Z,62.03
2023-03-01T09:47:21.214Z,62.33
2023-03-01T09:49:53.274Z,61.40
2023-03-01T09:52:27.783Z,61.63
2023-03-01T09:54:59.480Z,58.97
2023-03-01T09:57:31.335Z,60.83
2023-03-01T10:00:06.521Z,59.97
2023-03-01T10:02:41.211Z,59.78
2023-03-01T10:05:23.476Z,58.92
2023-03-01T10:07:56.129Z,57.00
2023-03-01T10:10:28.922Z,57.85
2023-03-01T10:12:57.293Z,56.03
2023-03-01T10:15:30.750Z,55.17
2023-03-01T10:18:01.532Z,56.30
2023-03-01T10:20:34.588Z,55.60
2023-03-01T10:23:03.279Z,53.88
2023-03-01T10:25:43.722Z,55.00
2023-03-01T10:28:15.328Z,53.85
2023-03-01T10:30:45.027Z,53.30
2023-03-01T10:33:19.024Z,53.03
2023-03-01T10:35:48.344Z,52.22
2023-03-01T10:38:17.287Z,51.53
2023-03-01T10:40:56.040Z,51.83
2023-03-01T10:43:24.323Z,51.10
2023-03-01T10:45:54.406Z,51.58
2023-03-01T10:48:27.156Z,50.03
2023-03-01T10:51:07.420Z,48.45
2023-03-01T10:53:36.408Z,47.95
2023-03-01T10:56:06.234Z,47.17
2023-03-01T10:58:34.978Z,47.25
2023-03-01T11:01:04.182Z,47.22
2023-03-01T11:03:34.508Z,46.78
2023-03-01T11:06:05.074Z,47.05
2023-03-01T11:08:41.358Z,46.22
2023-03-01T11:11:33.870Z,46.83
2023-03-01T11:14:03.153Z,45.17
2023-03-01T11:16:37.426Z,45.17
2023-03-01T11:19:27.922Z,44.97
2023-03-01T11:21:59.711Z,44.17
2023-03-01T11:24:32.529Z,43.40
2023-03-01T11:27:01.504Z,44.58
2023-03-01T11:29:37.241Z,44.53
2023-03-01T11:32:09.696Z,43.42
2023-03-01T11:34:45.269Z,42.47
2023-03-01T11:37:19.280Z,42.28
2023-03-01T11:39:49.842Z,41.17
2023-03-01T11:42:23.938Z,41.13
2023-03-01T11:44:54.690Z,40.60
2023-03-01T11:47:35.829Z,39.45
2023-03-01T11:50:15.069Z,39.42
2023-03-01T11:52:50.916Z,38.20
2023-03-01T11:55:25.421Z,39.15
2023-03-01T11:58:24.637Z,38.05
2023-03-01T12:01:10.322Z,38.33
2023-03-01T12:04:04.237Z,37.65
2023-03-01T12:06:48.951Z,38.08
2023-03-01T12:09:23.475Z,36.83
2023-03-01T12:12:11.640Z,36.50
2023-03-01T12:14:54.896Z,36.90
2023-03-01T12:17:43.232Z,37.53
2023-03-01T12:20:17.310Z,35.10
2023-03-01T12:22:54.625Z,35.05
2023-03-01T12:25:26.027Z,35.45
2023-03-01T12:28:19.296Z,33.78
2023-03-01T12:30:59.312Z,34.40
2023-03-01T12:33:29.761Z,33.75
2023-03-01T12:36:21.227Z,34.58
2023-03-01T12:38:52.200Z,32.70
2023-03-01T12:41:31.751Z,33.42
2023-03-01T12:44:14.878Z,34.85
2023-03-01T12:46:53.761Z,32.42
2023-03-01T12:49:24.548Z,31.92
2023-03-01T12:51:54.270Z,32.08
2023-03-01T12:54:28.017Z,32.17
2023-03-01T12:56:56.202Z,31.05
2023-03-01T12:59:26.710Z,31.33
2023-03-01T13:01:56.405Z,30.95
2023-03-01T13:04:31.120Z,29.63
2023-03-01T13:07:06.959Z,30.77
2023-03-01T13:09:40.692Z,29.60
2023-03-01T13:12:42.227Z,29.50
2023-03-01T13:15:27.328Z,29.23
2023-03-01T13:17:56.114Z,27.95
2023-03-01T13:20:26.781Z,29.08
2023-03-01T13:23:07.075Z,27.90
2023-03-01T13:25:42.428Z,28.70
2023-03-01T13:28:49.949Z,28.83
2023-03-01T13:32:05.055Z,26.92
2023-03-01T13:34:46.976Z,26.50
2023-03-01T13:37:22.269Z,27.20
2023-03-01T13:39:51.211Z,27.08
2023-03-01T13:42:48.156Z,26.95
2023-03-01T13:45:29.908Z,27.90
2023-03-01T13:48:00.445Z,27.55
2023-03-01T13:50:30.744Z,26.95
2023-03-01T13:53:00.452Z,27.80
2023-03-01T13:55:33.317Z,27.60
2023-03-01T13:58:02.890Z,26.58
2023-03-01T14:00:35.136Z,26.08
2023-03-01T14:03:10.533Z,26.45
2023-03-01T14:05:39.121Z,25.33
2023-03-01T14:08:07.546Z,25.98
2023-03-01T14:10:47.099Z,24.85
2023-03-01T14:13:28.028Z,24.90
2023-03-01T14:16:16.261Z,24.63
2023-03-01T14:18:47.383Z,24.92
2023-03-01T14:21:16.525Z,24.33
2023-03-01T14:23:44.630Z,24.23
2023-03-01T14:26:13.214Z,24.48
2023-03-01T14:28:41.272Z,24.17
2023-03-01T14:31:36.205Z,23.52
2023-03-01T14:34:06.632Z,24.52
2023-03-01T14:36:35.740Z,21.98
2023-03-01T14:39:06.908Z,23.50
2023-03-01T14:41:36.587Z,22.73
2023-03-01T14:44:05.936Z,23.20
2023-03-01T14:46:37.513Z,22.42
2023-03-01T14:49:06.731Z,21.88
2023-03-01T14:51:38.265Z,22.27
2023-03-01T14:54:12.973Z,21.92
2023-03-01T14:56:46.441Z,20.70
2023-03-01T14:59:14.947Z,20.77
2023-03-01T15:01:44.450Z,20.08
2023-03-01T15:04:14.760Z,19.77
2023-03-01T15:06:43.186Z,19.52
2023-03-01T15:09:15.774Z,19.42
2023-03-01T15:11:45.046Z,21.35
2023-03-01T15:14:42.218Z,22.15
2023-03-01T15:17:29.252Z,26.73
2023-03-01T15:19:57.416Z,39.05
2023-03-01T15:22:25.620Z,48.65
2023-03-01T15:24:53.831Z,51.42
2023-03-01T15:27:22.972Z,55.05
2023-03-01T15:29:51.624Z,55.92
2023-03-01T15:32:29.583Z,55.78
2023-03-01T15:34:58.268Z,57.90
2023-03-01T15:37:46.061Z,57.63
2023-03-01T15:40:21.692Z,63.67
2023-03-01T15:42:49.849Z,59.58
2023-03-01T15:45:24.658Z,58.00
2023-03-01T15:47:54.858Z,57.22
2023-03-01T15:50:24.693Z,58.65
2023-03-01T15:52:52.926Z,58.88
2023-03-01T15:55:22.021Z,57.67
2023-03-01T15:57:50.323Z,58.60
2023-03-01T16:00:19.863Z,58.50
2023-03-01T16:02:48.220Z,58.28
2023-03-01T16:05:22.955Z,59.90
2023-03-01T16:07:51.500Z,63.78
2023-03-01T16:10:20.091Z,70.57
2023-03-01T16:12:48.876Z,79.70
2023-03-01T16:15:19.251Z,74.00
2023-03-01T16:17:47.503Z,74.72
2023-03-01T16:20:30.043Z,72.78
2023-03-01T16:23:01.265Z,73.72
2023-03-01T16:25:29.950Z,75.38
2023-03-01T16:27:59.587Z,72.90
2023-03-01T16:30:27.813Z,74.82
2023-03-01T16:32:55.904Z,76.30
2023-03-01T16:35:25.732Z,76.20
2023-03-01T16:37:55.009Z,82.53
2023-03-01T16:40:24.060Z,84.60
2023-03-01T16:42:52.336Z,81.88
2023-03-01T16:45:25.248Z,84.50
2023-03-01T16:47:55.865Z,83.22
2023-03-01T16:50:25.761Z,84.00
2023-03-01T16:52:53.917Z,83.93
2023-03-01T16:55:22.282Z,83.40
2023-03-01T16:57:51.003Z,79.90
2023-03-01T17:00:19.641Z,49.55
2023-03-01T17:02:47.802Z,51.42
2023-03-01T17:05:15.882Z,60.28
2023-03-01T17:07:45.533Z,57.28
2023-03-01T17:10:13.719Z,53.80
2023-03-01T17:12:41.923Z,51.88
2023-03-01T17:15:13.036Z,51.17
2023-03-01T17:17:41.323Z,50.30
2023-03-01T17:20:10.887Z,52.53
2023-03-01T17:22:39.022Z,50.88
2023-03-01T17:25:09.976Z,50.70
2023-03-01T17:27:38.700Z,48.65
2023-03-01T17:30:07.669Z,48.42
2023-03-01T17:32:35.956Z,46.65
2023-03-01T17:35:04.322Z,44.83
2023-03-01T17:37:32.452Z,43.00
2023-03-01T17:40:00.616Z,42.47
2023-03-01T17:42:30.626Z,44.08
2023-03-01T17:44:59.064Z,42.97
2023-03-01T17:47:27.432Z,43.30
2023-03-01T17:49:55.838Z,44.10
2023-03-01T17:52:24.040Z,44.45
2023-03-01T17:54:52.405Z,45.92
2023-03-01T17:57:20.556Z,45.83
2023-03-01T17:59:50.112Z,45.08
2023-03-01T18:02:19.264Z,46.25
2023-03-01T18:04:47.705Z,43.70
2023-03-01T18:07:15.896Z,46.85
2023-03-01T18:09:44.319Z,44.95
2023-03-01T18:12:12.518Z,44.13
2023-03-01T18:14:40.674Z,44.55
2023-03-01T18:17:12.163Z,46.30
2023-03-01T18:19:41.407Z,45.38
2023-03-01T18:22:09.776Z,44.55
2023-03-01T18:24:38.536Z,42.88
2023-03-01T18:27:06.713Z,44.38
2023-03-01T18:29:34.971Z,42.28
2023-03-01T18:32:03.291Z,43.90
2023-03-01T18:34:33.146Z,43.08
2023-03-01T18:37:09.142Z,41.58
2023-03-01T18:39:37.844Z,41.53
2023-03-01T18:42:06.201Z,41.78
2023-03-01T18:44:34.344Z,40.60
2023-03-01T18:47:02.627Z,42.25
2023-03-01T18:49:32.128Z,40.47
2023-03-01T18:52:00.632Z,38.67
2023-03-01T18:54:28.744Z,38.28
2023-03-01T18:56:57.021Z,39.60
2023-03-01T18:59:25.178Z,38.30
2023-03-01T19:01:55.993Z,39.10
2023-03-01T19:04:24.294Z,37.38
2023-03-01T19:06:54.021Z,41.05
2023-03-01T19:09:22.170Z,41.70
2023-03-01T19:11:50.329Z,40.38
2023-03-01T19:14:18.579Z,41.13
2023-03-01T19:16:46.771Z,42.50
2023-03-01T19:19:14.828Z,42.42
2023-03-01T19:21:43.589Z,44.95
2023-03-01T19:24:15.064Z,47.38
2023-03-01T19:26:43.269Z,47.38
2023-03-01T19:29:12.352Z,48.13
2023-03-01T19:31:40.564Z,51.60
2023-03-01T19:34:11.917Z,53.10
2023-03-01T19:36:41.843Z,55.28
2023-03-01T19:39:10.400Z,57.85
2023-03-01T19:41:40.042Z,57.20
2023-03-01T19:44:08.776Z,56.55
2023-03-01T19:46:37.344Z,57.10
2023-03-01T19:49:05.675Z,56.80
2023-03-01T19:51:36.489Z,58.97
2023-03-01T19:54:05.555Z,57.03
2023-03-01T19:56:34.337Z,57.33
2023-03-01T19:59:04.738Z,59.47
2023-03-01T20:01:34.779Z,67.47
2023-03-01T20:04:03.140Z,66.03
2023-03-01T20:06:31.782Z,76.70
2023-03-01T20:09:08.873Z,87.38
2023-03-01T20:11:42.229Z,82.72
2023-03-01T20:14:12.469Z,81.57
2023-03-01T20:16:40.808Z,82.97
2023-03-01T20:19:09.034Z,84.03
2023-03-01T20:21:37.227Z,78.35
2023-03-01T20:24:05.681Z,82.53
2023-03-01T20:26:34.028Z,79.18
2023-03-01T20:29:02.439Z,81.30
2023-03-01T20:31:32.129Z,82.82
2023-03-01T20:34:00.747Z,86.50
2023-03-01T20:36:28.960Z,84.07
2023-03-01T20:38:57.322Z,87.15
2023-03-01T20:41:26.517Z,84.50
2023-03-01T20:43:59.486Z,86.03
2023-03-01T20:46:32.370Z,86.40
2023-03-01T20:49:02.542Z,86.07
2023-03-01T20:51:30.757Z,94.55
2023-03-01T20:53:58.923Z,96.57
2023-03-01T20:56:27.743Z,89.47
2023-03-01T20:59:05.456Z,99.68
2023-03-01T21:01:33.663Z,92.70
2023-03-01T21:04:03.199Z,95.53
2023-03-01T21:06:32.149Z,95.75
2023-03-01T21:09:00.404Z,95.35
2023-03-01T21:11:28.659Z,99.13
2023-03-01T21:13:56.779Z,101.70
2023-03-01T21:16:25.077Z,98.38
2023-03-01T21:18:53.600Z,99.40
2023-03-01T21:21:23.609Z,100.57
2023-03-01T21:23:51.738Z,98.40
2023-03-01T21:26:20.689Z,99.50
2023-03-01T21:28:50.177Z,100.03
2023-03-01T21:31:19.187Z,100.78
2023-03-01T21:33:48.408Z,95.15
2023-03-01T21:36:16.639Z,95.70
2023-03-01T21:38:46.710Z,100.65
2023-03-01T21:41:15.525Z,97.10
2023-03-01T21:43:44.311Z,96.22
2023-03-01T21:46:14.272Z,96.53
2023-03-01T21:48:44.294Z,95.50
2023-03-01T21:51:15.014Z,93.75
2023-03-01T21:53:43.358Z,95.32
2023-03-01T21:56:16.185Z,95.95
2023-03-01T21:58:44.396Z,93.78
2023-03-01T22:01:32.858Z,91.95
2023-03-01T22:04:03.303Z,92.15
2023-03-01T22:06:34.249Z,91.22
2023-03-01T22:09:04.815Z,93.22
2023-03-01T22:11:34.608Z,89.15
2023-03-01T22:14:04.815Z,89.95
2023-03-01T22:16:34.206Z,85.55
2023-03-01T22:19:02.619Z,86.07
2023-03-01T22:21:30.723Z,87.82
2023-03-01T22:23:58.999Z,86.18
2023-03-01T22:26:27.869Z,82.88
2023-03-01T22:28:59.831Z,84.80
2023-03-01T22:31:28.162Z,81.80
2023-03-01T22:33:56.499Z,83.10
2023-03-01T22:36:24.642Z,77.97
2023-03-01T22:38:58.731Z,82.03
2023-03-01T22:41:27.532Z,76.68
2023-03-01T22:43:57.064Z,75.60
2023-03-01T22:46:25.338Z,74.55
2023-03-01T22:48:53.453Z,75.63
2023-03-01T22:51:22.516Z,75.13
2023-03-01T22:53:50.651Z,74.07
2023-03-01T22:56:19.998Z,74.10
2023-03-01T22:58:48.117Z,73.15
2023-03-01T23:01:18.656Z,73.75
2023-03-01T23:03:46.843Z,70.97
2023-03-01T23:06:15.090Z,70.70
2023-03-01T23:08:43.281Z,67.20
2023-03-01T23:11:12.106Z,66.43
2023-03-01T23:13:40.194Z,66.65
2023-03-01T23:16:08.726Z,66.15
2023-03-01T23:18:38.333Z,66.25
2023-03-01T23:21:09.722Z,64.60
2023-03-01T23:23:37.904Z,64.30
2023-03-01T23:26:06.157Z,63.90
2023-03-01T23:28:34.486Z,62.03
2023-03-01T23:31:03.413Z,60.33
2023-03-01T23:33:33.337Z,61.28
2023-03-01T23:36:03.235Z,61.55
2023-03-01T23:38:31.379Z,59.22
2023-03-01T23:40:59.744Z,57.55
2023-03-01T23:43:27.984Z,57.38
2023-03-01T23:45:56.231Z,56.20
2023-03-01T23:48:24.482Z,56.45
2023-03-01T23:50:52.648Z,55.03
2023-03-01T23:53:22.183Z,54.92
2023-03-01T23:55:54.744Z,54.65
2023-03-01T23:58:28.485Z,53.83
